Time;durP1;ratioP1;P1;durP2;ratioP2;P2;SDS_P1;SDS_P2;PMS_P1;PMS_P2;Temp;Humidity;BMP_temperature;BMP_pressure;BME280_temperature;BME280_humidity;BME280_pressure;Samples;Min_cycle;Max_cycle;Signal;HPM_P1;HPM_P2
2022/11/05 01:16:50;;;;;;;8.23;1.77;;;;;;;-142.57;100.00;61215.63;5225856;23;20107;-81
2022/11/05 01:19:16;;;;;;;8.30;2.00;;;;;;;-142.57;100.00;61215.63;4919656;29;20036;-81
2022/11/05 01:21:41;;;;;;;7.13;1.90;;;;;;;-142.57;100.00;61215.63;4919335;29;20119;-79
2022/11/05 01:24:09;;;;;;;4.72;2.10;;;;;;;-142.57;100.00;61215.63;4914235;29;20558;-89
2022/11/05 01:26:35;;;;;;;5.07;1.90;;;;;;;-142.57;100.00;61215.63;4914559;29;20041;-80
2022/11/05 01:29:00;;;;;;;2.97;1.60;;;;;;;-142.57;100.00;61215.63;4901778;29;20032;-80
2022/11/05 01:31:27;;;;;;;3.63;1.90;;;;;;;-142.57;100.00;61215.63;4911293;29;20063;-80
2022/11/05 01:33:52;;;;;;;3.97;1.95;;;;;;;-142.57;100.00;61215.63;4903329;29;20052;-78
2022/11/05 01:36:18;;;;;;;6.53;2.03;;;;;;;-142.57;100.00;61215.63;4899966;29;20041;-79
2022/11/05 01:38:44;;;;;;;2.50;1.85;;;;;;;-142.57;100.00;61215.63;4899805;29;20158;-81
2022/11/05 01:41:10;;;;;;;2.72;1.77;;;;;;;-142.57;100.00;61215.63;4918578;29;20035;-82
2022/11/05 01:43:49;;;;;;;3.55;1.60;;;;;;;-142.57;100.00;61215.63;4911756;29;20047;-80
2022/11/05 01:46:18;;;;;;;2.47;1.52;;;;;;;-142.57;100.00;61215.63;4906144;29;20162;-82
2022/11/05 01:48:46;;;;;;;2.53;1.60;;;;;;;-142.57;100.00;61215.63;4907168;29;20077;-80
2022/11/05 01:51:16;;;;;;;4.07;1.65;;;;;;;-142.57;100.00;61215.63;4898941;29;20036;-80
2022/11/05 01:53:59;;;;;;;3.45;1.50;;;;;;;-142.57;100.00;61215.63;4900282;29;20430;-79
2022/11/05 01:56:30;;;;;;;2.53;1.50;;;;;;;-142.57;100.00;61215.63;4912769;29;20117;-80
2022/11/05 01:59:10;;;;;;;3.28;1.80;;;;;;;-142.57;100.00;61215.63;4903161;29;20032;-82
2022/11/05 02:01:36;;;;;;;3.40;1.65;;;;;;;-142.57;100.00;61215.63;4909942;29;20162;-81
2022/11/05 02:04:07;;;;;;;6.05;1.33;;;;;;;-142.57;100.00;61215.63;4915058;29;20040;-80
2022/11/05 02:06:38;;;;;;;5.43;1.67;;;;;;;-142.57;100.00;61215.63;4915229;29;20040;-81
2022/11/05 02:09:07;;;;;;;5.82;2.00;;;;;;;-142.57;100.00;61215.63;4915428;29;20071;-80
2022/11/05 02:11:33;;;;;;;3.30;1.50;;;;;;;-142.57;100.00;61215.63;4915161;29;20490;-84
2022/11/05 02:13:59;;;;;;;2.40;1.80;;;;;;;-142.57;100.00;61215.63;4915195;29;20040;-82
2022/11/05 02:16:49;;;;;;;2.38;1.65;;;;;;;-142.57;100.00;61215.63;4916328;29;20068;-82
2022/11/05 02:19:52;;;;;;;4.85;1.80;;;;;;;-142.57;100.00;61215.63;4916178;29;20048;-82
2022/11/05 02:22:46;;;;;;;4.03;1.55;;;;;;;-142.57;100.00;61215.63;4916696;29;20044;-80
2022/11/05 02:25:31;;;;;;;2.80;1.60;;;;;;;-142.57;100.00;61215.63;4916995;29;20051;-81
2022/11/05 02:28:23;;;;;;;5.57;2.13;;;;;;;-142.57;100.00;61215.63;4916712;29;20486;-82
2022/11/05 02:31:01;;;;;;;2.13;1.27;;;;;;;-142.57;100.00;61215.63;4916829;29;20493;-80
2022/11/05 02:33:47;;;;;;;5.28;1.40;;;;;;;-142.57;100.00;61215.63;4916760;29;20032;-80
2022/11/05 02:36:33;;;;;;;2.60;1.73;;;;;;;-142.57;100.00;61215.63;4916871;29;20047;-80
2022/11/05 02:39:10;;;;;;;2.75;2.00;;;;;;;-142.57;100.00;61215.63;4916553;29;20122;-81
2022/11/05 02:41:55;;;;;;;3.17;1.85;;;;;;;-142.57;100.00;61215.63;4916871;29;20036;-81
2022/11/05 02:44:31;;;;;;;3.35;1.60;;;;;;;-142.57;100.00;61215.63;4916719;29;20082;-82
2022/11/05 02:47:03;;;;;;;2.85;1.45;;;;;;;-142.57;100.00;61215.63;4915310;29;20055;-80
2022/11/05 02:49:40;;;;;;;2.53;1.58;;;;;;;-142.57;100.00;61215.63;4916619;29;20056;-82
2022/11/05 02:52:15;;;;;;;2.80;1.83;;;;;;;-142.57;100.00;61215.63;4916634;29;20048;-80
2022/11/05 02:54:49;;;;;;;2.65;1.50;;;;;;;-142.57;100.00;61215.63;4916864;29;20549;-80
2022/11/05 02:57:18;;;;;;;2.83;1.98;;;;;;;-142.57;100.00;61215.63;4916880;29;20051;-81
2022/11/05 02:59:43;;;;;;;4.30;2.30;;;;;;;-142.57;100.00;61215.63;4916692;29;20585;-81
2022/11/05 03:02:09;;;;;;;2.33;1.70;;;;;;;-142.57;100.00;61215.63;4916875;29;20063;-81
2022/11/05 03:04:35;;;;;;;5.30;2.10;;;;;;;-142.57;100.00;61215.63;4917076;29;20036;-81
2022/11/05 03:07:15;;;;;;;6.22;1.92;;;;;;;-142.57;100.00;61215.63;4906421;29;20040;-82
2022/11/05 03:09:50;;;;;;;3.42;2.20;;;;;;;-142.57;100.00;61215.63;4898080;29;20029;-81
2022/11/05 03:12:34;;;;;;;3.80;2.30;;;;;;;-142.57;100.00;61215.63;4907458;29;20075;-80
2022/11/05 03:15:11;;;;;;;3.17;2.15;;;;;;;-142.57;100.00;61215.63;4902570;29;20040;-80
2022/11/05 03:17:43;;;;;;;4.55;2.60;;;;;;;-142.57;100.00;61215.63;4912159;29;20084;-81
2022/11/05 03:20:22;;;;;;;7.68;2.40;;;;;;;-142.57;100.00;61215.63;4899862;29;20519;-80
2022/11/05 03:23:18;;;;;;;5.35;1.92;;;;;;;-142.57;100.00;61215.63;4910758;29;20091;-80
2022/11/05 03:25:57;;;;;;;5.47;2.47;;;;;;;-142.57;100.00;61215.63;4912908;29;20048;-79
2022/11/05 03:28:26;;;;;;;8.27;2.47;;;;;;;-142.57;100.00;61215.63;4899497;29;20068;-80
2022/11/05 03:30:55;;;;;;;5.30;2.88;;;;;;;-142.57;100.00;61215.63;4904396;29;20096;-80
2022/11/05 03:33:26;;;;;;;4.13;2.70;;;;;;;-142.57;100.00;61215.63;4900373;29;20041;-82
2022/11/05 03:35:55;;;;;;;5.13;2.80;;;;;;;-142.57;100.00;61215.63;4899737;29;20064;-82
2022/11/05 03:38:30;;;;;;;6.82;2.75;;;;;;;-142.57;100.00;61215.63;4909140;29;20071;-82
2022/11/05 03:41:00;;;;;;;6.40;2.55;;;;;;;-142.57;100.00;61215.63;4918696;29;20119;-81
2022/11/05 03:43:31;;;;;;;4.88;2.80;;;;;;;-142.57;100.00;61215.63;4902869;29;20108;-80
2022/11/05 03:46:04;;;;;;;13.05;2.78;;;;;;;-142.57;100.00;61215.63;4918708;29;20071;-81
2022/11/05 03:48:31;;;;;;;4.65;3.13;;;;;;;-142.57;100.00;61215.63;4902406;29;20043;-80
2022/11/05 03:51:09;;;;;;;5.22;2.58;;;;;;;-142.57;100.00;61215.63;4906148;29;20107;-82
2022/11/05 03:53:56;;;;;;;4.07;2.40;;;;;;;-142.57;100.00;61215.63;4917087;29;20510;-80
2022/11/05 03:56:43;;;;;;;13.15;2.97;;;;;;;-142.57;100.00;61215.63;4900721;29;20040;-80
2022/11/05 03:59:10;;;;;;;7.95;3.75;;;;;;;-142.57;100.00;61215.63;4909454;29;20037;-81
2022/11/05 04:01:37;;;;;;;6.18;3.50;;;;;;;-142.57;100.00;61215.63;4901127;29;20100;-81
2022/11/05 04:04:04;;;;;;;6.05;3.35;;;;;;;-142.57;100.00;61215.63;4907283;29;20482;-81
2022/11/05 04:14:42;;;;;;;5.95;3.58;;;;;;;-142.57;100.00;61215.63;4913885;29;20071;-81
2022/11/05 04:17:10;;;;;;;5.50;3.35;;;;;;;-142.57;100.00;61215.63;4919158;29;20123;-79
2022/11/05 04:25:08;;;;;;;8.63;3.80;;;;;;;-142.57;100.00;61215.63;4900616;29;20040;-80
2022/11/05 04:27:34;;;;;;;11.10;4.10;;;;;;;-142.57;100.00;61215.63;4900293;29;20037;-80
2022/11/05 04:30:18;;;;;;;6.55;3.65;;;;;;;-142.57;100.00;61215.63;4900092;29;20047;-81
2022/11/05 04:33:04;;;;;;;8.32;3.50;;;;;;;-142.57;100.00;61215.63;4900202;29;20071;-80
2022/11/05 04:35:35;;;;;;;4.80;2.88;;;;;;;-142.57;100.00;61215.63;4900827;29;20048;-80
2022/11/05 04:38:03;;;;;;;11.98;2.92;;;;;;;-142.57;100.00;61215.63;4919227;29;20043;-81
2022/11/05 04:40:29;;;;;;;5.00;3.05;;;;;;;-142.57;100.00;61215.63;4918896;29;20032;-80
2022/11/05 04:42:55;;;;;;;4.65;2.80;;;;;;;-142.57;100.00;61215.63;4918302;29;20912;-82
2022/11/05 04:45:22;;;;;;;8.02;3.08;;;;;;;-142.57;100.00;61215.63;4918597;29;20036;-79
2022/11/05 04:47:48;;;;;;;5.93;2.65;;;;;;;-142.57;100.00;61215.63;4918714;29;20524;-79
2022/11/05 04:50:14;;;;;;;4.57;2.90;;;;;;;-142.57;100.00;61215.63;4918480;29;20032;-84
2022/11/05 04:52:40;;;;;;;6.55;3.10;;;;;;;-142.57;100.00;61215.63;4918480;29;20036;-82
2022/11/05 04:55:06;;;;;;;6.72;3.10;;;;;;;-142.57;100.00;61215.63;4918586;29;20043;-81
2022/11/05 04:57:31;;;;;;;4.25;3.03;;;;;;;-142.57;100.00;61215.63;4918449;29;20119;-84
2022/11/05 04:59:56;;;;;;;5.43;2.95;;;;;;;-142.57;100.00;61215.63;4918878;29;20486;-80
2022/11/05 05:02:22;;;;;;;4.03;2.80;;;;;;;-142.57;100.00;61215.63;4918489;29;20036;-80
2022/11/05 05:04:47;;;;;;;6.00;2.80;;;;;;;-142.57;100.00;61215.63;4913297;29;20505;-81
2022/11/05 05:07:13;;;;;;;4.50;2.67;;;;;;;-142.57;100.00;61215.63;4914462;29;20470;-82
2022/11/05 05:09:38;;;;;;;3.75;2.60;;;;;;;-142.57;100.00;61215.63;4902876;29;20123;-83
2022/11/05 05:12:04;;;;;;;6.00;2.90;;;;;;;-142.57;100.00;61215.63;4899688;29;20039;-81
2022/11/05 05:14:30;;;;;;;9.35;2.90;;;;;;;-142.57;100.00;61215.63;4900260;29;20043;-80
2022/11/05 05:16:55;;;;;;;4.18;2.00;;;;;;;-142.57;100.00;61215.63;4917952;29;20103;-80
2022/11/05 05:19:23;;;;;;;3.30;2.38;;;;;;;-142.57;100.00;61215.63;4917939;29;20075;-79
2022/11/05 05:21:48;;;;;;;3.05;2.30;;;;;;;-142.57;100.00;61215.63;4918243;29;20390;-81
2022/11/05 05:24:19;;;;;;;3.25;2.40;;;;;;;-142.57;100.00;61215.63;4917950;29;20040;-81
2022/11/05 05:26:48;;;;;;;7.05;2.60;;;;;;;-142.57;100.00;61215.63;4920149;29;20040;-81
2022/11/05 05:29:14;;;;;;;4.13;2.25;;;;;;;-142.57;100.00;61215.63;4915098;29;20148;-80
2022/11/05 05:31:40;;;;;;;6.20;2.47;;;;;;;-142.57;100.00;61215.63;4899072;29;20045;-82
2022/11/05 05:34:12;;;;;;;3.78;2.17;;;;;;;-142.57;100.00;61215.63;4929806;29;20088;-80
2022/11/05 05:36:38;;;;;;;5.55;1.80;;;;;;;-142.57;100.00;61215.63;4936394;29;20039;-81
2022/11/05 05:39:05;;;;;;;4.57;2.63;;;;;;;-142.57;100.00;61215.63;4936626;29;20047;-81
2022/11/05 05:41:31;;;;;;;8.93;2.22;;;;;;;-142.57;100.00;61215.63;4936698;29;20042;-81
2022/11/05 05:43:57;;;;;;;5.13;2.33;;;;;;;-142.57;100.00;61215.63;4937281;29;20024;-81
2022/11/05 05:46:22;;;;;;;5.32;2.60;;;;;;;-142.57;100.00;61215.63;4936632;29;20474;-82
2022/11/05 05:48:50;;;;;;;10.43;2.15;;;;;;;-142.57;100.00;61215.63;4936483;29;20047;-82
2022/11/05 05:51:16;;;;;;;15.70;3.28;;;;;;;-142.57;100.00;61215.63;4936685;29;20036;-83
2022/11/05 05:53:42;;;;;;;10.18;2.40;;;;;;;-142.57;100.00;61215.63;4936351;29;20039;-83
2022/11/05 05:56:07;;;;;;;7.97;2.38;;;;;;;-142.57;100.00;61215.63;4934676;29;20046;-82
2022/11/05 05:58:36;;;;;;;6.95;2.17;;;;;;;-142.57;100.00;61215.63;4936441;29;20039;-82
2022/11/05 06:01:07;;;;;;;4.22;2.00;;;;;;;-142.57;100.00;61215.63;4935398;29;20051;-83
2022/11/05 06:03:33;;;;;;;5.25;2.38;;;;;;;-142.57;100.00;61215.63;4936384;29;20039;-84
2022/11/05 06:06:08;;;;;;;3.03;1.90;;;;;;;-142.57;100.00;61215.63;4937207;29;20046;-82
2022/11/05 06:08:33;;;;;;;4.63;2.35;;;;;;;-142.57;100.00;61215.63;4936212;29;20058;-82
2022/11/05 06:11:00;;;;;;;5.00;2.22;;;;;;;-142.57;100.00;61215.63;4936230;29;20481;-83
2022/11/05 06:13:25;;;;;;;6.45;2.13;;;;;;;-142.57;100.00;61215.63;4936353;29;20035;-82
2022/11/05 06:15:51;;;;;;;3.28;2.30;;;;;;;-142.57;100.00;61215.63;4936550;29;20598;-83
2022/11/05 06:18:17;;;;;;;7.30;2.88;;;;;;;-142.57;100.00;61215.63;4937085;29;20350;-82
2022/11/05 06:20:43;;;;;;;5.25;2.50;;;;;;;-142.57;100.00;61215.63;4936177;29;20027;-84
2022/11/05 06:23:09;;;;;;;5.82;2.47;;;;;;;-142.57;100.00;61215.63;4936096;29;20036;-84
2022/11/05 06:25:35;;;;;;;5.82;3.25;;;;;;;-142.57;100.00;61215.63;4914887;29;20830;-81
2022/11/05 06:28:00;;;;;;;6.10;3.38;;;;;;;-142.57;100.00;61215.63;4915567;29;20032;-84
2022/11/05 06:30:26;;;;;;;6.75;3.17;;;;;;;-142.57;100.00;61215.63;4915755;29;20028;-82
2022/11/05 06:32:51;;;;;;;11.27;3.45;;;;;;;-142.57;100.00;61215.63;4916573;29;20127;-83
2022/11/05 06:35:17;;;;;;;9.00;3.13;;;;;;;-142.57;100.00;61215.63;4915717;29;20067;-83
2022/11/05 06:37:42;;;;;;;11.20;3.65;;;;;;;-142.57;100.00;61215.63;4916231;29;20050;-84
2022/11/05 06:40:08;;;;;;;7.25;4.28;;;;;;;-142.57;100.00;61215.63;4916959;29;20394;-83
2022/11/05 06:42:34;;;;;;;7.90;3.78;;;;;;;-142.57;100.00;61215.63;4917432;29;20050;-84
2022/11/05 06:45:00;;;;;;;7.35;2.67;;;;;;;-142.57;100.00;61215.63;4917769;29;20047;-85
2022/11/05 06:47:26;;;;;;;3.83;2.55;;;;;;;-142.57;100.00;61215.63;4918330;29;20118;-85
2022/11/05 06:49:51;;;;;;;6.63;3.10;;;;;;;-142.57;100.00;61215.63;4915730;29;20044;-83
2022/11/05 06:52:17;;;;;;;5.93;2.22;;;;;;;-142.57;100.00;61215.63;4906185;29;20061;-85
2022/11/05 06:54:43;;;;;;;6.82;2.30;;;;;;;-142.57;100.00;61215.63;4907944;29;20119;-88
2022/11/05 06:57:12;;;;;;;4.20;2.38;;;;;;;-142.57;100.00;61215.63;4905348;29;20068;-83
2022/11/05 06:59:38;;;;;;;6.95;2.65;;;;;;;-142.57;100.00;61215.63;4905524;29;20032;-85
2022/11/05 07:02:05;;;;;;;6.65;2.28;;;;;;;-142.57;100.00;61215.63;4911914;29;20032;-82
2022/11/05 07:04:33;;;;;;;7.35;2.15;;;;;;;-142.57;100.00;61215.63;4912413;29;20033;-86
2022/11/05 07:07:02;;;;;;;6.07;2.45;;;;;;;-142.57;100.00;61215.63;4908895;29;20383;-84
2022/11/05 07:09:28;;;;;;;5.63;2.03;;;;;;;-142.57;100.00;61215.63;4907913;29;20039;-83
2022/11/05 07:11:54;;;;;;;3.47;1.90;;;;;;;-142.57;100.00;61215.63;4905425;29;20028;-92
2022/11/05 07:14:20;;;;;;;9.93;2.67;;;;;;;-142.57;100.00;61215.63;4905985;29;20051;-85
2022/11/05 07:16:45;;;;;;;8.52;2.08;;;;;;;-142.57;100.00;61215.63;4897066;29;20040;-83
2022/11/05 07:19:11;;;;;;;8.90;2.15;;;;;;;-142.57;100.00;61215.63;4907871;29;20514;-84
2022/11/05 07:21:36;;;;;;;5.85;2.00;;;;;;;-142.57;100.00;61215.63;4903883;29;20458;-82
2022/11/05 07:24:02;;;;;;;4.75;2.00;;;;;;;-142.57;100.00;61215.63;4901255;29;20029;-84
2022/11/05 07:26:30;;;;;;;6.03;2.10;;;;;;;-142.57;100.00;61215.63;4901489;29;20502;-89
2022/11/05 07:28:56;;;;;;;4.47;1.67;;;;;;;-142.57;100.00;61215.63;4906622;29;20100;-84
2022/11/05 07:31:22;;;;;;;6.35;1.88;;;;;;;-142.57;100.00;61215.63;4905382;29;20037;-83
2022/11/05 07:33:48;;;;;;;2.38;1.52;;;;;;;-142.57;100.00;61215.63;4904466;29;20079;-83
2022/11/05 07:36:15;;;;;;;6.47;1.70;;;;;;;-142.57;100.00;61215.63;4904832;29;20036;-82
2022/11/05 07:38:41;;;;;;;6.47;1.90;;;;;;;-142.57;100.00;61215.63;4912693;29;20494;-83
2022/11/05 07:41:06;;;;;;;5.05;2.05;;;;;;;-142.57;100.00;61215.63;4915917;29;20088;-84
2022/11/05 07:43:32;;;;;;;6.80;1.83;;;;;;;-142.57;100.00;61215.63;4903019;29;20095;-83
2022/11/05 07:45:58;;;;;;;3.53;1.77;;;;;;;-142.57;100.00;61215.63;4898206;29;20052;-86
2022/11/05 07:48:23;;;;;;;4.82;1.77;;;;;;;-142.57;100.00;61215.63;4897370;29;20041;-84
2022/11/05 07:50:51;;;;;;;5.70;2.00;;;;;;;-142.57;100.00;61215.63;4897704;29;20129;-83
2022/11/05 07:53:19;;;;;;;3.78;1.83;;;;;;;-142.57;100.00;61215.63;4897697;29;20096;-83
2022/11/05 07:55:45;;;;;;;2.97;1.80;;;;;;;-142.57;100.00;61215.63;4897475;29;20569;-82
2022/11/05 07:58:11;;;;;;;3.50;1.90;;;;;;;-142.57;100.00;61215.63;4897115;29;20125;-83
2022/11/05 08:00:37;;;;;;;5.57;1.95;;;;;;;-142.57;100.00;61215.63;4897139;29;20037;-84
2022/11/05 08:03:06;;;;;;;3.25;1.77;;;;;;;-142.57;100.00;61215.63;4897631;29;20038;-84
2022/11/05 08:05:35;;;;;;;5.97;2.35;;;;;;;-142.57;100.00;61215.63;4896995;29;20544;-84
2022/11/05 08:08:01;;;;;;;5.43;2.38;;;;;;;-142.57;100.00;61215.63;4897208;29;20398;-82
2022/11/05 08:10:27;;;;;;;6.28;2.42;;;;;;;-142.57;100.00;61215.63;4897011;29;20033;-85
2022/11/05 08:12:54;;;;;;;7.53;2.92;;;;;;;-142.57;100.00;61215.63;4896232;29;20028;-85
2022/11/05 08:15:20;;;;;;;4.20;2.22;;;;;;;-142.57;100.00;61215.63;4897560;29;20391;-82
2022/11/05 08:17:46;;;;;;;6.10;2.53;;;;;;;-142.57;100.00;61215.63;4898906;29;20050;-85
2022/11/05 08:20:13;;;;;;;3.88;2.22;;;;;;;-142.57;100.00;61215.63;4902373;29;20127;-83
2022/11/05 08:22:45;;;;;;;8.02;2.40;;;;;;;-142.57;100.00;61215.63;4900957;29;20036;-82
2022/11/05 08:25:11;;;;;;;3.77;2.10;;;;;;;-142.57;100.00;61215.63;4901277;29;20039;-85
2022/11/05 08:27:38;;;;;;;4.50;2.45;;;;;;;-142.57;100.00;61215.63;4900518;29;20130;-83
2022/11/05 08:30:05;;;;;;;6.55;2.38;;;;;;;-142.57;100.00;61215.63;4910207;29;20482;-84
2022/11/05 08:32:31;;;;;;;4.53;2.67;;;;;;;-142.57;100.00;61215.63;4915718;29;20473;-83
2022/11/05 08:35:04;;;;;;;4.47;2.45;;;;;;;-142.57;100.00;61215.63;4906909;29;20123;-83
2022/11/05 08:37:42;;;;;;;11.65;2.67;;;;;;;-142.57;100.00;61215.63;4895683;29;20049;-84
2022/11/05 08:40:08;;;;;;;5.68;2.70;;;;;;;-142.57;100.00;61215.63;4921475;29;20487;-85
2022/11/05 08:42:33;;;;;;;4.05;2.83;;;;;;;-142.57;100.00;61215.63;4926725;29;20112;-84
2022/11/05 08:44:59;;;;;;;6.05;2.60;;;;;;;-142.57;100.00;61215.63;4908335;29;20064;-84
2022/11/05 08:47:28;;;;;;;5.72;2.40;;;;;;;-142.57;100.00;61215.63;4902496;29;20040;-84
2022/11/05 08:49:53;;;;;;;4.53;2.88;;;;;;;-142.57;100.00;61215.63;4906383;29;20082;-83
2022/11/05 08:52:19;;;;;;;6.03;3.22;;;;;;;-142.57;100.00;61215.63;4921176;29;20127;-86
2022/11/05 08:54:44;;;;;;;5.70;2.90;;;;;;;-142.57;100.00;61215.63;4920013;29;20032;-85
2022/11/05 08:57:11;;;;;;;10.10;3.40;;;;;;;-142.57;100.00;61215.63;4908157;29;20435;-82
2022/11/05 08:59:36;;;;;;;7.65;3.10;;;;;;;-142.57;100.00;61215.63;4905164;29;20027;-85
2022/11/05 09:02:02;;;;;;;7.13;2.75;;;;;;;-142.57;100.00;61215.63;4910312;29;20467;-84
2022/11/05 09:04:27;;;;;;;4.20;2.63;;;;;;;-142.57;100.00;61215.63;4904342;29;20032;-84
2022/11/05 09:06:53;;;;;;;9.05;2.90;;;;;;;-142.57;100.00;61215.63;4905773;29;20111;-84
2022/11/05 09:09:18;;;;;;;5.07;2.80;;;;;;;-142.57;100.00;61215.63;4916240;29;20486;-84
2022/11/05 09:11:44;;;;;;;5.15;2.85;;;;;;;-142.57;100.00;61215.63;4904869;29;20033;-87
2022/11/05 09:14:09;;;;;;;8.23;3.15;;;;;;;-142.57;100.00;61215.63;4905925;29;20395;-85
2022/11/05 09:16:35;;;;;;;6.50;3.53;;;;;;;-142.57;100.00;61215.63;4912475;29;20611;-85
2022/11/05 09:19:03;;;;;;;5.80;3.47;;;;;;;-142.57;100.00;61215.63;4902880;29;20056;-89
2022/11/05 09:21:29;;;;;;;21.17;5.43;;;;;;;-142.57;100.00;61215.63;4910469;29;20043;-88
2022/11/05 09:23:55;;;;;;;8.52;2.90;;;;;;;-142.57;100.00;61215.63;4916658;29;20071;-84
2022/11/05 09:26:20;;;;;;;5.68;3.03;;;;;;;-142.57;100.00;61215.63;4917371;29;20075;-84
2022/11/05 09:28:46;;;;;;;6.57;2.85;;;;;;;-142.57;100.00;61215.63;4918077;29;20068;-83
2022/11/05 09:31:13;;;;;;;5.85;3.22;;;;;;;-142.57;100.00;61215.63;4911515;29;20036;-83
2022/11/05 09:33:40;;;;;;;8.13;3.30;;;;;;;-142.57;100.00;61215.63;4901376;29;20068;-82
2022/11/05 09:36:06;;;;;;;10.85;2.67;;;;;;;-142.57;100.00;61215.63;4904556;29;20103;-82
2022/11/05 09:38:33;;;;;;;6.28;2.85;;;;;;;-142.57;100.00;61215.63;4909477;29;20044;-81
2022/11/05 09:41:06;;;;;;;6.70;3.35;;;;;;;-142.57;100.00;61215.63;4904835;29;20030;-80
2022/11/05 09:43:37;;;;;;;5.10;2.80;;;;;;;-142.57;100.00;61215.63;4899811;29;20100;-81
2022/11/05 09:46:20;;;;;;;6.13;2.35;;;;;;;-142.57;100.00;61215.63;4900409;29;20076;-81
2022/11/05 09:48:53;;;;;;;7.68;3.03;;;;;;;-142.57;100.00;61215.63;4910341;29;20040;-81
2022/11/05 09:51:20;;;;;;;5.43;3.45;;;;;;;-142.57;100.00;61215.63;4906358;29;20142;-82
2022/11/05 09:53:46;;;;;;;9.25;3.90;;;;;;;-142.57;100.00;61215.63;4906335;29;20036;-82
2022/11/05 09:56:21;;;;;;;10.10;3.60;;;;;;;-142.57;100.00;61215.63;4901081;29;20048;-86
2022/11/05 09:58:59;;;;;;;7.32;3.70;;;;;;;-142.57;100.00;61215.63;4901161;29;20036;-83
2022/11/05 10:01:30;;;;;;;7.63;3.92;;;;;;;-142.57;100.00;61215.63;4903834;29;20033;-81
2022/11/05 10:04:00;;;;;;;7.50;4.13;;;;;;;-142.57;100.00;61215.63;4904190;29;20430;-85
2022/11/05 10:06:27;;;;;;;6.68;3.80;;;;;;;-142.57;100.00;61215.63;4905106;29;20429;-84
2022/11/05 10:09:25;;;;;;;6.25;4.05;;;;;;;-142.57;100.00;61215.63;4906941;29;20024;-82
2022/11/05 10:11:56;;;;;;;7.97;3.95;;;;;;;-142.57;100.00;61215.63;4905197;29;20054;-82
2022/11/05 10:14:35;;;;;;;6.60;4.03;;;;;;;-142.57;100.00;61215.63;4896391;29;20053;-84
2022/11/05 10:17:11;;;;;;;10.18;4.32;;;;;;;-142.57;100.00;61215.63;4907056;29;20040;-84
2022/11/05 10:19:53;;;;;;;7.80;4.03;;;;;;;-142.57;100.00;61215.63;4900889;29;20036;-83
2022/11/05 10:22:19;;;;;;;10.90;4.90;;;;;;;-142.57;100.00;61215.63;4906705;29;20040;-81
2022/11/05 10:24:48;;;;;;;6.72;3.50;;;;;;;-142.57;100.00;61215.63;4906090;29;20111;-81
2022/11/05 10:27:29;;;;;;;6.30;4.30;;;;;;;-142.57;100.00;61215.63;4901281;29;20072;-82
2022/11/05 10:29:55;;;;;;;6.80;4.32;;;;;;;-142.57;100.00;61215.63;4901389;29;20036;-84
2022/11/05 10:32:29;;;;;;;6.88;4.00;;;;;;;-142.57;100.00;61215.63;4901775;29;20405;-81
2022/11/05 10:34:58;;;;;;;7.55;4.80;;;;;;;-142.57;100.00;61215.63;4906355;29;20048;-83
2022/11/05 10:37:23;;;;;;;13.82;4.90;;;;;;;-142.57;100.00;61215.63;4905986;29;20040;-84
2022/11/05 10:39:49;;;;;;;7.70;4.22;;;;;;;-142.57;100.00;61215.63;4904851;29;20036;-85
2022/11/05 10:42:36;;;;;;;7.20;4.60;;;;;;;-142.57;100.00;61215.63;4904458;29;20044;-84
2022/11/05 10:45:43;;;;;;;6.38;4.38;;;;;;;-142.57;100.00;61215.63;4923948;29;20060;-84
2022/11/05 10:48:51;;;;;;;12.63;4.63;;;;;;;-142.57;100.00;61215.63;4917858;29;20073;-84
2022/11/05 10:51:18;;;;;;;6.93;4.13;;;;;;;-142.57;100.00;61215.63;4892583;29;20041;-88
2022/11/05 10:53:56;;;;;;;6.28;4.35;;;;;;;-142.57;100.00;61215.63;4911269;29;20076;-88
2022/11/05 10:56:56;;;;;;;6.90;4.45;;;;;;;-142.57;100.00;61215.63;4914076;29;20048;-81
2022/11/05 10:59:25;;;;;;;8.60;4.63;;;;;;;-142.57;100.00;61215.63;4900199;29;20106;-84
2022/11/05 11:02:00;;;;;;;11.18;5.30;;;;;;;-142.57;100.00;61215.63;4899295;29;20391;-84
2022/11/05 11:04:28;;;;;;;12.00;5.13;;;;;;;-142.57;100.00;61215.63;4865363;29;20047;-83
2022/11/05 11:06:56;;;;;;;5.72;3.92;;;;;;;-142.57;100.00;61215.63;4913472;29;20122;-83
2022/11/05 11:09:29;;;;;;;8.02;3.88;;;;;;;-142.57;100.00;61215.63;4915580;29;20043;-84
2022/11/05 11:12:00;;;;;;;9.75;3.85;;;;;;;-142.57;100.00;61215.63;4914196;29;20385;-83
2022/11/05 11:14:27;;;;;;;11.02;3.80;;;;;;;-142.57;100.00;61215.63;4913370;29;20036;-83
2022/11/05 11:16:56;;;;;;;10.57;4.47;;;;;;;-142.57;100.00;61215.63;4914099;29;20656;-81
2022/11/05 11:19:30;;;;;;;7.43;4.47;;;;;;;-142.57;100.00;61215.63;4912087;29;20409;-83
2022/11/05 11:22:17;;;;;;;6.72;4.15;;;;;;;-142.57;100.00;61215.63;4918836;29;20036;-84
2022/11/05 11:25:10;;;;;;;6.45;3.65;;;;;;;-142.57;100.00;61215.63;4924331;29;20063;-82
2022/11/05 11:27:37;;;;;;;8.35;3.33;;;;;;;-142.57;100.00;61215.63;4923266;29;20466;-84
2022/11/05 11:30:16;;;;;;;5.07;3.58;;;;;;;-142.57;100.00;61215.63;4923034;29;20047;-84
2022/11/05 11:32:41;;;;;;;5.47;3.65;;;;;;;-142.57;100.00;61215.63;4922358;29;20055;-82
2022/11/05 11:35:29;;;;;;;8.88;3.60;;;;;;;-142.57;100.00;61215.63;4921883;29;20482;-82
2022/11/05 11:37:59;;;;;;;8.48;4.32;;;;;;;-142.57;100.00;61215.63;4920605;29;20048;-84
2022/11/05 11:40:31;;;;;;;7.75;3.55;;;;;;;-142.57;100.00;61215.63;4925691;29;20092;-83
2022/11/05 11:43:01;;;;;;;7.55;3.83;;;;;;;-142.57;100.00;61215.63;4919980;29;20040;-84
2022/11/05 11:45:36;;;;;;;8.65;4.28;;;;;;;-142.57;100.00;61215.63;4918510;29;20032;-84
2022/11/05 11:48:07;;;;;;;5.63;3.75;;;;;;;-142.57;100.00;61215.63;4908321;29;20072;-86
2022/11/05 11:50:41;;;;;;;5.88;3.75;;;;;;;-142.57;100.00;61215.63;4899827;29;20060;-84
2022/11/05 11:53:19;;;;;;;7.85;4.18;;;;;;;-142.57;100.00;61215.63;4902019;29;20482;-86
2022/11/05 11:56:16;;;;;;;8.00;3.83;;;;;;;-142.57;100.00;61215.63;4904597;29;20382;-84
2022/11/05 11:58:48;;;;;;;6.45;4.07;;;;;;;-142.57;100.00;61215.63;4906850;29;20071;-87
2022/11/05 12:01:48;;;;;;;8.02;4.25;;;;;;;-142.57;100.00;61215.63;4906619;29;20495;-86
2022/11/05 12:04:55;;;;;;;6.65;3.83;;;;;;;-142.57;100.00;61215.63;4909730;29;20139;-84
2022/11/05 12:07:40;;;;;;;10.15;4.03;;;;;;;-142.57;100.00;61215.63;4903617;29;20046;-88
2022/11/05 12:10:40;;;;;;;7.25;4.22;;;;;;;-142.57;100.00;61215.63;4909574;29;20041;-87
2022/11/05 12:13:21;;;;;;;7.72;4.10;;;;;;;-142.57;100.00;61215.63;4903155;29;20500;-90
2022/11/05 12:15:50;;;;;;;7.53;3.92;;;;;;;-142.57;100.00;61215.63;4904922;29;20321;-89
2022/11/05 12:18:24;;;;;;;7.88;3.58;;;;;;;-142.57;100.00;61215.63;4903254;29;20041;-89
2022/11/05 12:21:15;;;;;;;6.53;3.40;;;;;;;-142.57;100.00;61215.63;4906015;29;20045;-90
2022/11/05 12:23:44;;;;;;;8.38;3.58;;;;;;;-142.57;100.00;61215.63;4907531;29;20383;-88
2022/11/05 12:26:28;;;;;;;6.32;3.60;;;;;;;-142.57;100.00;61215.63;4905483;29;20040;-90
2022/11/05 12:29:19;;;;;;;11.10;4.18;;;;;;;-142.57;100.00;61215.63;4909526;29;20033;-91
2022/11/05 12:32:05;;;;;;;5.85;3.53;;;;;;;-142.57;100.00;61215.63;4907325;29;20040;-91
2022/11/05 12:35:00;;;;;;;9.60;4.07;;;;;;;-142.57;100.00;61215.63;4906956;29;20596;-89
2022/11/05 12:37:32;;;;;;;7.82;4.00;;;;;;;-142.57;100.00;61215.63;4905783;29;20052;-90
2022/11/05 12:40:04;;;;;;;;;;;;;;;-142.57;100.00;61215.63;4905066;29;20040;-87
2022/11/05 12:43:02;;;;;;;10.20;4.97;;;;;;;-142.57;100.00;61215.63;4904320;29;19915;-88
2022/11/05 12:45:34;;;;;;;9.77;4.50;;;;;;;-142.57;100.00;61215.63;4863858;29;20056;-89
2022/11/05 12:48:05;;;;;;;8.88;4.35;;;;;;;-142.57;100.00;61215.63;4902672;29;20471;-88
2022/11/05 12:51:09;;;;;;;10.05;5.03;;;;;;;-142.57;100.00;61215.63;4901255;29;20036;-91
2022/11/05 12:54:02;;;;;;;7.60;3.70;;;;;;;-142.57;100.00;61215.63;4905176;29;20104;-90
2022/11/05 12:56:36;;;;;;;;;;;;;;;-142.57;100.00;61215.63;4904729;29;20403;-87
2022/11/05 12:59:20;;;;;;;7.45;3.25;;;;;;;-142.57;100.00;61215.63;4905158;29;19971;-88